createdAt,value
2022-07-27T00:04:44.559Z,17.60
2022-07-27T00:09:48.242Z,17.60
2022-07-27T00:14:53.347Z,17.60
2022-07-27T00:19:56.979Z,17.60
2022-07-27T00:25:00.674Z,17.50
2022-07-27T00:30:06.602Z,17.50
2022-07-27T00:35:11.705Z,17.40
2022-07-27T00:40:16.555Z,17.40
2022-07-27T00:45:21.894Z,17.40
2022-07-27T00:50:25.793Z,17.30
2022-07-27T00:55:30.007Z,17.30
2022-07-27T01:00:35.497Z,17.30
2022-07-27T01:05:42.513Z,17.20
2022-07-27T01:10:48.296Z,17.20
2022-07-27T01:15:53.935Z,17.20
2022-07-27T01:20:58.904Z,17.20
2022-07-27T01:26:05.633Z,17.10
2022-07-27T01:31:09.466Z,17.10
2022-07-27T01:36:13.217Z,17.10
2022-07-27T01:41:18.216Z,17.00
2022-07-27T01:46:21.941Z,17.00
2022-07-27T01:51:25.704Z,17.00
2022-07-27T01:56:31.873Z,16.90
2022-07-27T02:01:35.744Z,16.90
2022-07-27T02:06:39.774Z,16.90
2022-07-27T02:12:02.107Z,16.90
2022-07-27T02:17:05.837Z,16.80
2022-07-27T02:22:10.640Z,16.80
2022-07-27T02:27:15.743Z,16.70
2022-07-27T02:32:19.414Z,16.70
2022-07-27T02:37:23.203Z,16.70
2022-07-27T02:42:28.327Z,16.60
2022-07-27T02:47:32.058Z,16.60
2022-07-27T02:52:35.889Z,16.60
2022-07-27T02:57:41.283Z,16.60
2022-07-27T03:02:49.008Z,16.50
2022-07-27T03:07:52.697Z,16.50
2022-07-27T03:12:57.937Z,16.50
2022-07-27T03:18:01.963Z,16.50
2022-07-27T03:23:05.653Z,16.50
2022-07-27T03:28:10.696Z,16.50
2022-07-27T03:33:14.362Z,16.40
2022-07-27T03:38:18.208Z,16.40
2022-07-27T03:43:23.209Z,16.40
2022-07-27T03:48:27.305Z,16.40
2022-07-27T03:53:31.029Z,16.30
2022-07-27T03:58:36.122Z,16.30
2022-07-27T04:03:44.085Z,16.30
2022-07-27T04:08:48.253Z,16.30
2022-07-27T04:13:53.327Z,16.20
2022-07-27T04:18:57.028Z,16.20
2022-07-27T04:24:00.700Z,16.20
2022-07-27T04:29:06.127Z,16.10
2022-07-27T04:34:09.796Z,16.10
2022-07-27T04:39:13.988Z,16.10
2022-07-27T04:44:19.269Z,16.10
2022-07-27T04:49:23.178Z,16.00
2022-07-27T04:54:26.869Z,16.10
2022-07-27T04:59:31.886Z,16.10
2022-07-27T05:04:35.658Z,16.10
2022-07-27T05:09:39.447Z,16.10
2022-07-27T05:14:44.509Z,16.10
2022-07-27T05:19:48.193Z,16.20
2022-07-27T05:24:51.930Z,16.20
2022-07-27T05:29:56.933Z,16.30
2022-07-27T05:35:00.622Z,16.40
2022-07-27T05:40:04.969Z,16.40
2022-07-27T05:45:11.460Z,16.50
2022-07-27T05:50:15.953Z,16.50
2022-07-27T05:55:19.690Z,16.60
2022-07-27T06:00:24.878Z,16.70
2022-07-27T06:05:28.595Z,16.80
2022-07-27T06:10:34.764Z,16.80
2022-07-27T06:15:40.425Z,16.90
2022-07-27T06:20:44.177Z,16.90
2022-07-27T06:25:47.977Z,17.00
2022-07-27T06:30:54.540Z,17.10
2022-07-27T06:35:59.518Z,17.20
2022-07-27T06:41:03.808Z,17.20
2022-07-27T06:46:12.717Z,17.30
2022-07-27T06:51:16.555Z,17.30
2022-07-27T06:56:20.593Z,17.30
2022-07-27T07:01:25.693Z,17.40
2022-07-27T07:06:29.482Z,17.40
2022-07-27T07:11:33.284Z,17.40
2022-07-27T07:16:38.755Z,17.40
2022-07-27T07:21:42.501Z,17.50
2022-07-27T07:26:46.486Z,17.50
2022-07-27T07:31:51.617Z,17.50
2022-07-27T07:36:55.747Z,17.50
2022-07-27T07:41:59.418Z,17.60
2022-07-27T07:47:05.092Z,17.60
2022-07-27T07:52:09.260Z,17.60
2022-07-27T07:57:12.948Z,17.60
2022-07-27T08:02:17.996Z,17.70
2022-07-27T08:07:22.088Z,17.70
2022-07-27T08:12:25.791Z,17.80
2022-07-27T08:17:30.881Z,17.90
2022-07-27T08:22:35.677Z,18.00
2022-07-27T08:27:40.455Z,18.00
2022-07-27T08:32:52.014Z,18.10
2022-07-27T08:37:56.145Z,18.10
2022-07-27T08:43:03.044Z,18.10
2022-07-27T08:48:14.006Z,18.30
2022-07-27T08:53:18.435Z,18.30
2022-07-27T08:58:22.244Z,18.40
2022-07-27T09:03:27.463Z,18.40
2022-07-27T09:08:31.736Z,18.50
2022-07-27T09:13:36.347Z,18.60
2022-07-27T09:18:41.524Z,18.60
2022-07-27T09:23:48.031Z,18.60
2022-07-27T09:28:54.367Z,18.70
2022-07-27T09:34:00.963Z,18.70
2022-07-27T09:39:06.938Z,18.80
2022-07-27T09:44:31.145Z,19.00
2022-07-27T09:49:36.547Z,19.40
2022-07-27T09:54:45.347Z,19.70
2022-07-27T09:59:49.214Z,19.90
2022-07-27T10:04:55.397Z,19.90
2022-07-27T10:10:00.867Z,19.80
2022-07-27T10:15:05.229Z,19.70
2022-07-27T10:20:12.607Z,19.70
2022-07-27T10:25:16.386Z,19.70
2022-07-27T10:30:23.993Z,19.70
2022-07-27T10:35:36.672Z,19.70
2022-07-27T10:40:41.181Z,19.70
2022-07-27T10:45:50.404Z,20.00
2022-07-27T10:51:07.656Z,20.60
2022-07-27T10:56:11.693Z,21.10
2022-07-27T11:01:17.368Z,21.60
2022-07-27T11:06:55.503Z,21.90
2022-07-27T11:11:51.556Z,22.20
2022-07-27T11:16:57.438Z,22.40
2022-07-27T11:22:09.080Z,22.10
2022-07-27T11:27:30.321Z,21.80
2022-07-27T11:32:37.271Z,21.50
2022-07-27T11:37:43.275Z,21.40
2022-07-27T11:42:47.940Z,21.20
2022-07-27T11:47:57.912Z,21.10
2022-07-27T11:53:04.115Z,21.40
2022-07-27T11:58:07.733Z,21.50
2022-07-27T12:03:21.205Z,21.90
2022-07-27T12:08:28.226Z,22.30
2022-07-27T12:13:33.948Z,22.70
2022-07-27T12:18:43.799Z,23.00
2022-07-27T12:23:52.834Z,23.30
2022-07-27T12:29:10.447Z,23.50
2022-07-27T12:34:16.042Z,23.50
2022-07-27T12:39:32.198Z,23.50
2022-07-27T12:44:36.813Z,23.40
2022-07-27T12:49:46.087Z,23.40
2022-07-27T12:54:51.572Z,23.20
2022-07-27T12:59:55.346Z,23.20
2022-07-27T13:04:59.103Z,23.40
2022-07-27T13:10:05.760Z,23.60
2022-07-27T13:15:09.968Z,23.40
2022-07-27T13:20:14.513Z,23.20
2022-07-27T13:25:19.943Z,23.20
2022-07-27T13:30:24.650Z,23.40
2022-07-27T13:35:28.673Z,23.40
2022-07-27T13:40:33.820Z,23.30
2022-07-27T13:45:43.005Z,23.30
2022-07-27T13:50:47.309Z,23.30
2022-07-27T13:55:52.354Z,23.10
2022-07-27T14:00:56.698Z,22.90
2022-07-27T14:06:00.467Z,23.00
2022-07-27T14:11:05.560Z,23.10
2022-07-27T14:16:11.507Z,23.00
2022-07-27T14:21:15.534Z,22.90
2022-07-27T14:26:22.333Z,22.70
2022-07-27T14:31:26.208Z,22.60
2022-07-27T14:36:30.256Z,22.60
2022-07-27T14:41:36.740Z,22.50
2022-07-27T14:46:42.163Z,22.50
2022-07-27T14:51:46.037Z,22.60
2022-07-27T14:56:51.238Z,22.70
2022-07-27T15:01:55.043Z,22.80
2022-07-27T15:06:59.998Z,22.80
2022-07-27T15:12:07.787Z,22.90
2022-07-27T15:17:11.523Z,23.00
2022-07-27T15:22:15.365Z,23.00
2022-07-27T15:27:20.608Z,23.00
2022-07-27T15:32:24.562Z,22.90
2022-07-27T15:37:30.497Z,22.80
2022-07-27T15:42:37.909Z,22.70
2022-07-27T15:47:42.137Z,22.50
2022-07-27T15:52:45.865Z,22.40
2022-07-27T15:57:50.991Z,22.30
2022-07-27T16:02:54.877Z,22.20
2022-07-27T16:08:00.635Z,22.10
2022-07-27T16:13:06.063Z,22.10
2022-07-27T16:18:09.806Z,22.00
2022-07-27T16:23:19.093Z,21.90
2022-07-27T16:28:27.880Z,21.90
2022-07-27T16:33:31.766Z,21.80
2022-07-27T16:38:35.573Z,21.80
2022-07-27T16:43:40.622Z,21.80
2022-07-27T16:48:44.683Z,21.70
2022-07-27T16:53:49.105Z,21.70
2022-07-27T16:58:54.102Z,21.60
2022-07-27T17:03:58.756Z,21.60
2022-07-27T17:09:02.560Z,21.60
2022-07-27T17:14:08.129Z,21.60
2022-07-27T17:19:12.264Z,21.50
2022-07-27T17:24:16.194Z,21.50
2022-07-27T17:29:21.279Z,21.50
2022-07-27T17:34:25.104Z,21.50
2022-07-27T17:39:29.905Z,21.50
2022-07-27T17:44:44.421Z,21.40
2022-07-27T17:49:48.121Z,21.40
2022-07-27T17:54:51.841Z,21.40
2022-07-27T17:59:57.432Z,21.40
2022-07-27T18:05:01.130Z,21.30
2022-07-27T18:10:05.814Z,21.20
2022-07-27T18:15:29.489Z,21.20
2022-07-27T18:20:33.324Z,21.10
2022-07-27T18:25:37.161Z,21.00
2022-07-27T18:30:42.223Z,21.00
2022-07-27T18:35:47.459Z,20.90
2022-07-27T18:40:51.710Z,20.90
2022-07-27T18:45:57.270Z,20.80
2022-07-27T18:51:01.003Z,20.80
2022-07-27T18:56:04.964Z,20.80
2022-07-27T19:01:10.622Z,20.70
2022-07-27T19:06:18.015Z,20.70
2022-07-27T19:11:22.599Z,20.60
2022-07-27T19:16:27.786Z,20.60
2022-07-27T19:21:32.977Z,20.50
2022-07-27T19:26:39.083Z,20.50
2022-07-27T19:31:44.187Z,20.40
2022-07-27T19:36:47.900Z,20.40
2022-07-27T19:41:53.847Z,20.30
2022-07-27T19:46:59.188Z,20.30
2022-07-27T19:52:04.620Z,20.20
2022-07-27T19:57:08.513Z,20.10
2022-07-27T20:02:16.714Z,20.10
2022-07-27T20:07:20.575Z,20.00
2022-07-27T20:12:25.666Z,20.00
2022-07-27T20:17:36.044Z,19.90
2022-07-27T20:22:41.111Z,19.80
2022-07-27T20:27:44.946Z,19.80
2022-07-27T20:32:51.091Z,19.80
2022-07-27T20:37:55.161Z,19.70
2022-07-27T20:42:58.971Z,19.60
2022-07-27T20:48:04.429Z,19.60
2022-07-27T20:53:08.168Z,19.50
2022-07-27T20:58:13.589Z,19.50
2022-07-27T21:03:19.043Z,19.40
2022-07-27T21:08:22.837Z,19.40
2022-07-27T21:13:26.968Z,19.30
2022-07-27T21:18:33.041Z,19.30
2022-07-27T21:23:54.378Z,19.20
2022-07-27T21:28:58.483Z,19.20
2022-07-27T21:34:03.908Z,19.20
2022-07-27T21:39:08.230Z,19.10
2022-07-27T21:44:13.134Z,19.00
2022-07-27T21:49:18.580Z,19.00
2022-07-27T21:54:30.237Z,18.90
2022-07-27T21:59:34.497Z,18.90
2022-07-27T22:04:39.835Z,18.90
2022-07-27T22:09:44.269Z,18.90
2022-07-27T22:14:48.060Z,18.80
2022-07-27T22:19:53.449Z,18.80
2022-07-27T22:24:57.219Z,18.70
2022-07-27T22:30:00.996Z,18.70
2022-07-27T22:35:07.097Z,18.70
2022-07-27T22:40:11.827Z,18.60
2022-07-27T22:45:15.674Z,18.60
2022-07-27T22:50:21.792Z,18.60
2022-07-27T22:55:25.754Z,18.50
2022-07-27T23:00:29.934Z,18.50
2022-07-27T23:05:35.390Z,18.50
2022-07-27T23:10:48.451Z,18.50
2022-07-27T23:15:52.418Z,18.40
2022-07-27T23:20:57.779Z,18.40
2022-07-27T23:26:01.612Z,18.30
2022-07-27T23:31:06.333Z,18.30
2022-07-27T23:36:12.070Z,18.30
2022-07-27T23:41:16.768Z,18.30
2022-07-27T23:46:20.953Z,18.30
2022-07-27T23:51:26.353Z,18.30
2022-07-27T23:56:29.998Z,18.20
